Time;durP1;ratioP1;P1;durP2;ratioP2;P2;SDS_P1;SDS_P2;PMS_P1;PMS_P2;Temp;Humidity;BMP_temperature;BMP_pressure;BME280_temperature;BME280_humidity;BME280_pressure;Samples;Min_cycle;Max_cycle;Signal;HPM_P1;HPM_P2
2023/07/22 00:02:01;;;;;;;10.37;6.93;;;16.10;94.50;;;;;;5044528;28;20466;-61
2023/07/22 00:04:28;;;;;;;14.63;10.33;;;17.50;95.40;;;;;;5062382;28;20475;-62
2023/07/22 00:06:55;;;;;;;6.20;5.57;;;17.50;95.40;;;;;;5061127;28;20475;-61
2023/07/22 00:09:21;;;;;;;11.93;8.97;;;17.50;95.30;;;;;;5056873;28;20843;-62
2023/07/22 00:11:51;;;;;;;8.70;7.00;;;17.40;95.60;;;;;;5053924;28;20497;-61
2023/07/22 00:14:19;;;;;;;10.30;8.20;;;17.30;95.80;;;;;;5036983;28;21330;-62
2023/07/22 00:16:46;;;;;;;12.93;5.40;;;17.30;95.50;;;;;;5007194;28;20491;-61
2023/07/22 00:19:14;;;;;;;10.07;7.27;;;17.30;95.20;;;;;;5038488;28;20482;-61
2023/07/22 00:21:40;;;;;;;6.60;5.20;;;17.20;95.20;;;;;;5059388;28;20795;-61
2023/07/22 00:24:08;;;;;;;7.37;6.27;;;17.30;95.70;;;;;;5060782;28;20486;-61
2023/07/22 00:26:34;;;;;;;6.20;5.27;;;17.30;95.70;;;;;;5058210;28;20617;-62
2023/07/22 00:29:02;;;;;;;10.67;8.23;;;17.20;95.30;;;;;;5065278;28;20504;-61
2023/07/22 00:31:31;;;;;;;9.80;7.30;;;17.20;95.70;;;;;;5054811;28;20482;-61
2023/07/22 00:33:58;;;;;;;9.53;7.17;;;17.10;95.70;;;;;;5061225;28;20487;-61
2023/07/22 00:36:24;;;;;;;13.23;9.17;;;17.10;96.10;;;;;;5060693;28;20471;-61
2023/07/22 00:38:52;;;;;;;7.37;5.90;;;17.10;95.80;;;;;;5062927;28;20475;-61
2023/07/22 00:41:19;;;;;;;14.73;9.13;;;17.10;95.50;;;;;;5062178;28;20481;-61
2023/07/22 00:43:46;;;;;;;7.67;6.43;;;17.10;95.60;;;;;;5056654;28;20491;-61
2023/07/22 00:46:13;;;;;;;12.27;7.80;;;17.10;96.00;;;;;;5060750;28;20852;-61
2023/07/22 00:48:42;;;;;;;10.40;6.63;;;17.10;96.10;;;;;;5066123;28;20477;-61
2023/07/22 00:51:09;;;;;;;12.93;8.00;;;17.10;96.30;;;;;;5065108;28;20481;-61
2023/07/22 00:53:36;;;;;;;10.50;6.20;;;17.10;96.40;;;;;;5061623;28;20490;-61
2023/07/22 00:56:03;;;;;;;10.70;7.60;;;17.10;96.60;;;;;;5059744;28;20479;-61
2023/07/22 00:58:30;;;;;;;13.27;7.20;;;17.10;96.10;;;;;;5058294;28;20478;-61
2023/07/22 01:00:57;;;;;;;14.13;7.33;;;17.10;96.00;;;;;;5038785;28;20492;-61
2023/07/22 01:03:25;;;;;;;16.53;10.73;;;17.10;96.20;;;;;;5056535;28;20470;-61
2023/07/22 01:05:56;;;;;;;8.33;7.40;;;17.00;96.40;;;;;;5057000;28;20833;-61
2023/07/22 01:08:23;;;;;;;10.03;8.30;;;16.80;96.70;;;;;;5060529;28;21065;-62
2023/07/22 01:10:50;;;;;;;10.20;6.90;;;16.70;97.20;;;;;;5056235;28;20491;-61
2023/07/22 01:13:17;;;;;;;11.47;8.87;;;16.60;97.00;;;;;;5057526;28;20475;-62
2023/07/22 01:15:43;;;;;;;10.70;7.67;;;16.60;96.90;;;;;;5057661;28;20873;-61
2023/07/22 01:18:10;;;;;;;7.80;5.87;;;16.60;96.90;;;;;;5056796;28;21787;-61
2023/07/22 01:20:37;;;;;;;10.97;6.23;;;16.60;97.20;;;;;;5041162;28;21289;-62
2023/07/22 01:23:06;;;;;;;13.43;6.90;;;16.60;97.50;;;;;;5058806;28;20471;-61
2023/07/22 01:25:33;;;;;;;8.93;8.00;;;16.60;97.50;;;;;;5058601;28;21016;-61
2023/07/22 01:28:00;;;;;;;10.63;7.47;;;16.60;97.30;;;;;;5057701;28;20840;-61
2023/07/22 01:30:27;;;;;;;12.10;8.90;;;16.60;97.00;;;;;;5058379;28;20477;-62
2023/07/22 01:32:54;;;;;;;9.83;7.30;;;16.60;96.80;;;;;;5056949;28;20478;-61
2023/07/22 01:35:21;;;;;;;12.57;10.00;;;18.90;98.20;;;;;;5059617;28;20489;-61
2023/07/22 01:37:48;;;;;;;6.90;5.90;;;16.50;97.60;;;;;;5059434;28;20471;-61
2023/07/22 01:40:17;;;;;;;7.53;6.20;;;16.50;97.50;;;;;;5058897;28;20494;-61
2023/07/22 01:42:44;;;;;;;10.87;8.30;;;16.50;97.40;;;;;;5058761;28;21005;-61
2023/07/22 01:45:11;;;;;;;11.23;7.57;;;16.40;97.80;;;;;;5057120;28;20485;-61
2023/07/22 01:47:40;;;;;;;8.70;7.10;;;16.20;98.10;;;;;;5061552;28;20869;-61
2023/07/22 01:50:07;;;;;;;9.67;6.70;;;16.00;98.40;;;;;;5048214;28;20475;-61
2023/07/22 01:52:34;;;;;;;11.57;7.37;;;15.90;98.60;;;;;;5037750;28;20479;-61
2023/07/22 01:55:05;;;;;;;11.33;7.50;;;16.00;98.50;;;;;;5028067;28;20492;-61
2023/07/22 01:57:33;;;;;;;8.40;6.67;;;16.00;98.20;;;;;;5045487;28;20497;-61
2023/07/22 02:00:00;;;;;;;10.17;6.13;;;16.10;98.20;;;;;;5037494;28;20471;-62
2023/07/22 02:02:27;;;;;;;15.50;10.73;;;16.20;98.30;;;;;;5043622;28;20831;-62
2023/07/22 02:04:54;;;;;;;10.40;7.47;;;16.20;98.20;;;;;;5032033;28;20505;-61
2023/07/22 02:07:21;;;;;;;13.10;10.07;;;16.20;98.10;;;;;;5063326;27;20488;-61
2023/07/22 02:09:51;;;;;;;11.63;8.93;;;16.20;98.10;;;;;;5055089;27;20845;-61
2023/07/22 02:12:18;;;;;;;12.80;9.23;;;16.20;98.10;;;;;;5073245;28;20482;-60
2023/07/22 02:14:46;;;;;;;9.83;8.20;;;16.10;98.30;;;;;;5059637;28;20759;-61
2023/07/22 02:17:13;;;;;;;8.10;6.70;;;16.10;98.50;;;;;;5056770;28;20563;-60
2023/07/22 02:19:40;;;;;;;12.17;8.80;;;15.90;98.90;;;;;;5055105;28;20916;-61
2023/07/22 02:22:07;;;;;;;12.00;7.97;;;15.70;99.40;;;;;;5053324;28;20489;-61
2023/07/22 02:24:34;;;;;;;9.47;7.57;;;15.70;99.60;;;;;;5047634;28;20879;-61
2023/07/22 02:27:01;;;;;;;11.90;7.07;;;15.60;99.70;;;;;;5041588;28;20490;-61
2023/07/22 02:29:28;;;;;;;14.50;11.10;;;15.60;99.70;;;;;;5047297;28;20839;-61
2023/07/22 02:31:56;;;;;;;11.53;7.97;;;15.60;99.20;;;;;;5047975;28;20985;-61
2023/07/22 02:34:23;;;;;;;14.30;9.93;;;15.70;98.90;;;;;;5050963;28;20479;-61
2023/07/22 02:36:50;;;;;;;7.30;5.60;;;15.70;98.90;;;;;;5038720;28;21094;-61
2023/07/22 02:39:16;;;;;;;9.47;7.63;;;15.70;98.90;;;;;;5050571;28;20524;-61
2023/07/22 02:41:44;;;;;;;8.80;6.10;;;15.80;98.70;;;;;;5053819;28;20467;-61
2023/07/22 02:44:12;;;;;;;11.67;7.63;;;15.80;98.50;;;;;;5057627;28;20490;-61
2023/07/22 02:46:39;;;;;;;9.53;7.10;;;15.70;98.70;;;;;;5052653;28;20574;-61
2023/07/22 02:49:07;;;;;;;11.80;7.63;;;15.60;99.10;;;;;;5055712;28;20475;-61
2023/07/22 02:51:34;;;;;;;11.50;6.07;;;15.50;98.80;;;;;;5064710;28;20490;-61
2023/07/22 02:54:01;;;;;;;13.13;7.40;;;15.40;99.00;;;;;;5059119;28;20493;-61
2023/07/22 02:56:28;;;;;;;13.00;9.47;;;15.20;99.20;;;;;;5060385;28;21037;-61
2023/07/22 02:58:55;;;;;;;9.63;6.67;;;16.80;99.90;;;;;;5048181;28;20711;-61
2023/07/22 03:01:22;;;;;;;17.87;10.17;;;14.90;99.80;;;;;;5057980;28;21155;-61
2023/07/22 03:03:48;;;;;;;9.97;7.00;;;14.80;99.90;;;;;;5058440;28;20838;-61
2023/07/22 03:06:17;;;;;;;12.40;8.30;;;14.70;99.90;;;;;;5052775;28;20471;-61
2023/07/22 03:08:43;;;;;;;8.50;5.97;;;12.50;99.50;;;;;;5059030;28;20486;-61
2023/07/22 03:11:10;;;;;;;9.83;6.90;;;14.60;99.90;;;;;;5060464;28;20851;-61
2023/07/22 03:13:37;;;;;;;9.10;7.50;;;14.60;99.90;;;;;;5053835;28;21026;-61
2023/07/22 03:16:04;;;;;;;10.93;7.87;;;14.70;99.90;;;;;;5055548;28;20483;-61
2023/07/22 03:18:31;;;;;;;9.80;7.70;;;14.60;99.90;;;;;;5055966;28;20478;-61
2023/07/22 03:20:58;;;;;;;13.73;8.40;;;14.60;99.90;;;;;;5058214;28;20474;-61
2023/07/22 03:23:27;;;;;;;14.13;9.30;;;14.60;99.90;;;;;;5058282;28;20480;-61
2023/07/22 03:25:54;;;;;;;10.07;8.03;;;14.70;99.90;;;;;;5059381;28;20554;-61
2023/07/22 03:28:20;;;;;;;12.40;7.87;;;14.80;99.90;;;;;;5044616;28;20987;-62
2023/07/22 03:30:47;;;;;;;9.00;7.00;;;14.90;99.90;;;;;;5060132;28;20832;-61
2023/07/22 03:33:14;;;;;;;9.93;7.67;;;15.00;99.90;;;;;;5041854;28;20483;-61
2023/07/22 03:35:41;;;;;;;9.73;7.80;;;15.10;99.90;;;;;;5038888;28;20487;-61
2023/07/22 03:38:08;;;;;;;10.17;7.40;;;15.00;99.90;;;;;;5033247;28;20479;-61
2023/07/22 03:40:38;;;;;;;9.80;7.40;;;15.00;99.90;;;;;;5069298;28;20566;-61
2023/07/22 03:43:05;;;;;;;10.27;6.63;;;14.90;99.90;;;;;;5025318;28;20480;-61
2023/07/22 03:45:32;;;;;;;13.10;9.13;;;14.90;99.90;;;;;;5021935;28;20571;-62
2023/07/22 03:48:00;;;;;;;13.70;7.53;;;14.90;99.90;;;;;;5020320;28;20541;-61
2023/07/22 03:50:27;;;;;;;10.97;8.97;;;14.90;99.90;;;;;;5031108;28;20493;-62
2023/07/22 03:52:54;;;;;;;8.50;7.33;;;14.90;99.90;;;;;;5020287;28;20472;-61
2023/07/22 03:55:21;;;;;;;17.77;11.97;;;14.90;99.90;;;;;;5023220;28;21061;-61
2023/07/22 03:57:50;;;;;;;12.97;7.77;;;14.90;99.90;;;;;;5023336;28;20643;-61
2023/07/22 04:00:17;;;;;;;8.97;7.30;;;14.80;99.90;;;;;;5018739;28;20489;-61
2023/07/22 04:02:44;;;;;;;10.17;7.80;;;14.70;99.90;;;;;;5016660;28;20489;-61
2023/07/22 04:05:11;;;;;;;10.80;8.40;;;14.70;99.90;;;;;;5030806;28;20501;-61
2023/07/22 04:07:38;;;;;;;10.10;7.50;;;14.60;99.90;;;;;;5022272;28;20491;-61
2023/07/22 04:10:06;;;;;;;10.50;8.33;;;14.60;99.90;;;;;;5021994;28;20477;-61
2023/07/22 04:12:33;;;;;;;12.20;8.43;;;14.60;99.90;;;;;;5022231;28;20826;-61
2023/07/22 04:15:02;;;;;;;11.40;9.23;;;14.70;99.90;;;;;;5016962;28;20619;-61
2023/07/22 04:17:29;;;;;;;14.43;10.30;;;14.80;99.90;;;;;;5027048;28;20986;-61
2023/07/22 04:19:56;;;;;;;13.40;8.60;;;14.80;99.90;;;;;;5026749;28;20491;-61
2023/07/22 04:22:23;;;;;;;16.33;10.53;;;14.80;99.90;;;;;;5027085;28;20487;-61
2023/07/22 04:24:49;;;;;;;10.37;6.63;;;14.90;99.90;;;;;;5018936;28;20472;-61
2023/07/22 04:27:17;;;;;;;13.40;10.17;;;14.80;99.90;;;;;;5014773;28;20976;-61
2023/07/22 04:29:44;;;;;;;10.20;7.43;;;14.70;99.90;;;;;;5047070;28;21022;-61
2023/07/22 04:32:12;;;;;;;12.03;8.10;;;14.60;99.90;;;;;;5022966;28;20494;-60
2023/07/22 04:34:39;;;;;;;11.00;7.20;;;14.60;99.90;;;;;;5015175;28;20492;-61
2023/07/22 04:37:06;;;;;;;8.57;7.57;;;14.60;99.90;;;;;;5035733;28;20489;-61
2023/07/22 04:39:34;;;;;;;13.40;7.73;;;14.60;99.90;;;;;;5027442;28;21075;-61
2023/07/22 04:42:01;;;;;;;12.17;9.20;;;14.50;99.90;;;;;;5030023;28;21097;-61
2023/07/22 04:44:28;;;;;;;17.23;11.53;;;14.50;99.90;;;;;;5030193;28;20482;-61
2023/07/22 04:46:55;;;;;;;8.83;7.40;;;14.50;99.90;;;;;;5028256;28;20484;-61
2023/07/22 04:49:23;;;;;;;11.60;9.03;;;14.50;99.90;;;;;;5026261;28;20472;-61
2023/07/22 04:51:50;;;;;;;14.80;8.40;;;14.60;99.90;;;;;;5032660;28;20865;-61
2023/07/22 04:54:18;;;;;;;13.70;10.57;;;14.70;99.90;;;;;;5028885;28;20534;-61
2023/07/22 04:56:45;;;;;;;9.57;7.50;;;14.80;99.90;;;;;;5039310;28;20480;-60
2023/07/22 04:59:13;;;;;;;15.73;6.97;;;14.90;99.90;;;;;;5033455;28;20483;-61
2023/07/22 05:01:40;;;;;;;13.90;8.93;;;15.10;99.90;;;;;;5034015;28;21584;-61
2023/07/22 05:04:07;;;;;;;11.43;8.73;;;15.20;99.90;;;;;;5025784;28;20467;-61
2023/07/22 05:06:35;;;;;;;10.27;8.50;;;15.40;99.90;;;;;;5022452;28;20912;-61
2023/07/22 05:09:03;;;;;;;8.60;6.57;;;15.60;99.90;;;;;;5023134;28;20541;-61
2023/07/22 05:11:30;;;;;;;17.03;10.70;;;15.20;99.90;;;;;;5024053;28;20475;-61
2023/07/22 05:13:57;;;;;;;10.47;8.10;;;15.80;99.90;;;;;;5025154;28;20472;-61
2023/07/22 05:16:24;;;;;;;14.97;10.07;;;15.90;99.90;;;;;;5024682;28;20477;-61
2023/07/22 05:18:51;;;;;;;7.93;6.43;;;15.90;99.90;;;;;;5034055;28;20484;-61
2023/07/22 05:21:18;;;;;;;9.80;7.10;;;16.10;99.90;;;;;;5019218;28;20530;-61
2023/07/22 05:23:46;;;;;;;11.10;7.70;;;16.20;99.90;;;;;;5015688;28;20836;-62
2023/07/22 05:26:13;;;;;;;9.17;5.50;;;16.40;99.90;;;;;;5018413;28;21044;-62
2023/07/22 05:28:40;;;;;;;7.93;6.90;;;16.50;99.90;;;;;;5002889;28;20490;-62
2023/07/22 05:31:07;;;;;;;10.80;7.93;;;16.60;99.90;;;;;;5017866;28;20849;-61
2023/07/22 05:33:34;;;;;;;9.00;7.50;;;16.70;99.90;;;;;;5006462;28;20985;-61
2023/07/22 05:36:01;;;;;;;8.67;7.10;;;16.80;99.90;;;;;;5026548;28;20549;-61
2023/07/22 05:38:28;;;;;;;12.10;8.70;;;16.90;99.90;;;;;;5017371;28;20472;-61
2023/07/22 05:40:56;;;;;;;9.37;8.37;;;17.00;99.90;;;;;;5015387;28;20506;-61
2023/07/22 05:43:23;;;;;;;16.30;10.60;;;17.10;99.90;;;;;;5031920;28;20549;-61
2023/07/22 05:45:50;;;;;;;7.90;5.60;;;17.10;99.90;;;;;;5023708;28;20495;-61
2023/07/22 05:48:17;;;;;;;9.37;6.53;;;17.20;99.90;;;;;;5035003;28;20839;-61
2023/07/22 05:50:44;;;;;;;10.17;7.77;;;17.30;99.90;;;;;;5013337;28;20484;-61
2023/07/22 05:53:12;;;;;;;8.80;6.90;;;17.50;99.90;;;;;;5019775;28;20477;-61
2023/07/22 05:55:39;;;;;;;10.77;6.20;;;17.50;99.60;;;;;;5018693;28;20499;-61
2023/07/22 05:58:08;;;;;;;7.50;6.00;;;17.60;99.40;;;;;;5022635;28;20517;-61
2023/07/22 06:00:35;;;;;;;6.97;6.30;;;17.60;99.00;;;;;;5013748;28;20478;-62
2023/07/22 06:03:02;;;;;;;8.50;7.50;;;17.70;98.60;;;;;;5020849;28;20680;-61
2023/07/22 06:05:28;;;;;;;10.33;8.03;;;17.70;99.90;;;;;;5014892;28;20853;-61
2023/07/22 06:07:57;;;;;;;6.70;6.00;;;17.80;99.30;;;;;;5025798;28;20483;-61
2023/07/22 06:10:23;;;;;;;9.00;7.93;;;17.80;98.10;;;;;;5021857;28;20471;-62
2023/07/22 06:12:50;;;;;;;9.67;6.40;;;17.70;98.40;;;;;;5021248;28;20481;-62
2023/07/22 06:15:19;;;;;;;8.67;6.57;;;17.70;97.90;;;;;;5014532;28;21030;-62
2023/07/22 06:17:45;;;;;;;9.20;5.63;;;16.70;98.00;;;;;;5013422;28;20492;-61
2023/07/22 06:20:13;;;;;;;8.30;5.70;;;17.70;98.70;;;;;;5040442;28;20475;-62
2023/07/22 06:22:40;;;;;;;6.80;5.90;;;17.90;99.00;;;;;;5008019;28;20985;-62
2023/07/22 06:25:07;;;;;;;4.73;4.10;;;17.90;98.60;;;;;;5018064;28;20476;-62
2023/07/22 06:27:35;;;;;;;6.53;5.83;;;18.10;98.60;;;;;;5043980;28;20477;-62
2023/07/22 06:30:01;;;;;;;6.40;5.73;;;18.30;98.40;;;;;;5052071;28;20501;-61
2023/07/22 06:32:30;;;;;;;12.73;6.60;;;18.40;98.00;;;;;;5059754;28;20478;-61
2023/07/22 06:34:57;;;;;;;10.00;6.70;;;18.60;97.80;;;;;;5043954;28;20486;-61
2023/07/22 06:37:24;;;;;;;10.13;7.90;;;18.70;98.00;;;;;;5060176;28;20471;-61
2023/07/22 06:39:51;;;;;;;7.67;5.13;;;18.70;97.90;;;;;;5054134;28;20494;-61
2023/07/22 06:42:18;;;;;;;6.67;5.97;;;18.80;97.30;;;;;;5044672;28;20513;-62
2023/07/22 06:44:45;;;;;;;16.23;8.20;;;19.00;97.80;;;;;;5050103;28;20479;-62
2023/07/22 06:47:12;;;;;;;7.83;4.73;;;19.10;97.90;;;;;;5055860;28;20487;-62
2023/07/22 06:49:41;;;;;;;11.20;5.77;;;19.20;97.40;;;;;;5054348;28;20463;-62
2023/07/22 06:52:08;;;;;;;5.80;5.20;;;19.30;96.70;;;;;;5064189;28;21021;-62
2023/07/22 06:54:35;;;;;;;9.30;6.40;;;19.40;97.20;;;;;;5052122;28;20478;-62
2023/07/22 06:57:02;;;;;;;7.90;6.13;;;19.30;95.80;;;;;;5055429;28;20574;-62
2023/07/22 06:59:29;;;;;;;9.50;7.20;;;19.30;96.50;;;;;;5039412;28;20462;-62
2023/07/22 07:01:56;;;;;;;7.37;6.37;;;19.40;96.60;;;;;;5049284;28;20491;-62
2023/07/22 07:04:23;;;;;;;7.70;6.77;;;19.60;96.10;;;;;;5051559;28;20483;-62
2023/07/22 07:06:51;;;;;;;7.30;4.57;;;19.80;96.50;;;;;;5051094;28;20561;-62
2023/07/22 07:09:18;;;;;;;7.53;6.60;;;19.90;95.60;;;;;;5043879;28;20583;-63
2023/07/22 07:11:46;;;;;;;4.30;3.90;;;20.00;95.80;;;;;;5033349;28;20484;-62
2023/07/22 07:14:13;;;;;;;6.30;5.70;;;20.00;95.00;;;;;;5027337;28;20872;-62
2023/07/22 07:16:40;;;;;;;6.40;5.23;;;20.10;95.10;;;;;;5029537;28;20479;-61
2023/07/22 07:19:07;;;;;;;5.80;5.20;;;20.20;95.30;;;;;;5028968;28;20917;-62
2023/07/22 07:21:34;;;;;;;5.57;5.07;;;20.30;95.10;;;;;;5028044;28;21071;-62
2023/07/22 07:24:02;;;;;;;6.97;6.27;;;20.40;94.60;;;;;;5022540;28;20565;-62
2023/07/22 07:26:29;;;;;;;11.03;7.20;;;20.40;95.00;;;;;;5029164;28;20479;-62
2023/07/22 07:28:56;;;;;;;5.57;5.03;;;20.50;94.20;;;;;;5020496;28;20486;-62
2023/07/22 07:31:23;;;;;;;7.73;6.93;;;20.80;93.70;;;;;;5022810;28;20488;-62
2023/07/22 07:33:50;;;;;;;7.80;4.83;;;20.80;93.70;;;;;;5015242;28;21149;-62
2023/07/22 07:36:16;;;;;;;7.47;6.07;;;20.80;93.40;;;;;;5016820;28;20491;-62
2023/07/22 07:38:43;;;;;;;4.93;4.53;;;20.80;93.80;;;;;;5021099;28;20480;-62
2023/07/22 07:41:12;;;;;;;5.43;4.93;;;20.90;94.20;;;;;;5024705;28;20496;-62
2023/07/22 07:43:39;;;;;;;9.93;4.90;;;20.80;94.20;;;;;;5017579;28;20737;-62
2023/07/22 07:46:18;;;;;;;7.87;5.90;;;20.90;94.70;;;;;;5022329;28;20488;-62
2023/07/22 07:48:46;;;;;;;9.10;4.53;;;20.80;93.30;;;;;;5028348;28;20467;-62
2023/07/22 07:51:14;;;;;;;6.00;5.40;;;20.80;93.70;;;;;;5021263;28;20485;-62
2023/07/22 07:53:41;;;;;;;7.50;5.83;;;20.80;94.20;;;;;;5022498;28;20481;-62
2023/07/22 07:56:10;;;;;;;5.83;4.60;;;20.90;94.90;;;;;;5044327;28;20490;-62
2023/07/22 07:58:38;;;;;;;10.07;4.80;;;21.00;93.20;;;;;;5045808;28;20849;-61
2023/07/22 08:01:05;;;;;;;10.03;5.00;;;21.10;92.80;;;;;;5034990;28;20481;-62
2023/07/22 08:03:33;;;;;;;9.57;7.17;;;21.20;92.50;;;;;;5019061;28;20491;-62
2023/07/22 08:06:00;;;;;;;5.43;4.97;;;21.20;92.70;;;;;;5024078;28;20486;-62
2023/07/22 08:08:26;;;;;;;7.30;6.60;;;21.30;92.70;;;;;;5017809;28;20485;-62
2023/07/22 08:11:00;;;;;;;6.07;5.00;;;21.30;92.00;;;;;;5011298;28;20484;-62
2023/07/22 08:13:30;;;;;;;6.93;6.23;;;21.40;92.50;;;;;;5043525;28;20505;-62
2023/07/22 08:15:57;;;;;;;5.70;5.20;;;21.50;92.90;;;;;;5022554;28;20489;-62
2023/07/22 08:18:24;;;;;;;6.93;6.30;;;21.70;92.50;;;;;;5018516;28;20475;-62
2023/07/22 08:20:52;;;;;;;5.67;5.10;;;21.80;91.90;;;;;;5017210;28;20471;-62
2023/07/22 08:23:19;;;;;;;8.80;6.50;;;21.80;92.30;;;;;;5018723;28;20491;-62
2023/07/22 08:25:46;;;;;;;5.70;5.20;;;21.80;92.60;;;;;;5019192;28;20485;-61
2023/07/22 08:28:13;;;;;;;6.10;5.50;;;22.00;92.80;;;;;;5025383;28;20562;-62
2023/07/22 08:30:42;;;;;;;5.67;5.07;;;22.20;92.40;;;;;;5015947;28;20474;-62
2023/07/22 08:33:09;;;;;;;6.73;6.10;;;22.40;91.90;;;;;;5018422;28;20484;-62
2023/07/22 08:35:36;;;;;;;10.40;5.73;;;22.80;92.20;;;;;;5049167;28;20488;-62
2023/07/22 08:38:04;;;;;;;6.53;5.30;;;22.80;92.30;;;;;;5039115;28;20485;-63
2023/07/22 08:40:34;;;;;;;6.70;4.77;;;23.00;91.50;;;;;;5031859;28;20491;-63
2023/07/22 08:43:02;;;;;;;5.67;5.10;;;23.10;92.50;;;;;;5029778;28;20511;-63
2023/07/22 08:45:32;;;;;;;8.17;7.20;;;23.20;90.50;;;;;;5025878;28;20493;-63
2023/07/22 08:48:03;;;;;;;6.13;5.53;;;23.20;90.60;;;;;;5028179;28;20586;-62
2023/07/22 08:50:34;;;;;;;5.90;5.40;;;23.40;91.30;;;;;;5019729;28;20467;-63
2023/07/22 08:53:03;;;;;;;10.23;5.70;;;23.50;90.20;;;;;;5018975;28;20493;-64
2023/07/22 08:55:30;;;;;;;9.30;5.50;;;23.50;90.00;;;;;;5032549;28;20721;-63
2023/07/22 08:57:57;;;;;;;7.23;4.73;;;23.60;90.80;;;;;;5024917;28;20968;-63
2023/07/22 09:00:25;;;;;;;21.30;7.80;;;23.70;88.40;;;;;;5014741;28;20894;-62
2023/07/22 09:02:53;;;;;;;5.00;4.60;;;23.70;89.00;;;;;;5019612;28;20862;-62
2023/07/22 09:05:22;;;;;;;7.83;5.23;;;23.90;85.70;;;;;;5022909;28;20479;-62
2023/07/22 09:07:49;;;;;;;5.50;5.10;;;24.00;86.80;;;;;;5022677;28;20499;-62
2023/07/22 09:10:16;;;;;;;6.13;5.50;;;24.10;89.60;;;;;;5020910;28;20479;-62
2023/07/22 09:12:44;;;;;;;11.93;5.60;;;24.20;88.90;;;;;;5020905;28;20618;-62
2023/07/22 09:15:13;;;;;;;4.10;3.80;;;24.40;86.50;;;;;;5008268;28;20457;-63
2023/07/22 09:17:41;;;;;;;8.77;4.83;;;24.40;85.30;;;;;;5029788;28;20495;-63
2023/07/22 09:20:09;;;;;;;6.90;5.03;;;24.40;84.90;;;;;;5030394;28;20697;-62
2023/07/22 09:22:37;;;;;;;7.43;5.80;;;24.20;84.30;;;;;;5030673;28;20485;-62
2023/07/22 09:25:15;;;;;;;11.90;4.40;;;24.10;84.00;;;;;;5017115;28;20489;-62
2023/07/22 09:27:42;;;;;;;8.53;4.63;;;24.10;85.80;;;;;;5017182;28;20499;-63
2023/07/22 09:30:22;;;;;;;5.40;5.00;;;24.10;83.70;;;;;;5011732;28;20505;-62
2023/07/22 09:32:49;;;;;;;5.40;4.90;;;24.00;83.40;;;;;;5015817;28;20489;-62
2023/07/22 09:35:17;;;;;;;5.93;5.43;;;23.90;83.80;;;;;;5015465;28;20453;-63
2023/07/22 09:37:46;;;;;;;8.27;6.50;;;24.00;83.00;;;;;;5023020;28;20686;-62
2023/07/22 09:40:20;;;;;;;9.60;5.40;;;24.10;84.10;;;;;;5009356;28;20576;-62
2023/07/22 09:42:48;;;;;;;7.40;6.50;;;24.00;84.60;;;;;;5012396;28;20691;-63
2023/07/22 09:45:15;;;;;;;6.33;5.73;;;24.30;85.50;;;;;;5027530;28;20508;-63
2023/07/22 09:47:42;;;;;;;8.50;6.03;;;24.50;84.60;;;;;;5021339;28;20836;-62
2023/07/22 09:50:13;;;;;;;5.53;5.00;;;24.70;85.70;;;;;;5011636;28;20465;-62
2023/07/22 09:52:47;;;;;;;5.27;4.77;;;24.80;82.00;;;;;;5038403;28;20488;-63
2023/07/22 09:55:15;;;;;;;9.87;5.97;;;24.90;83.70;;;;;;5024296;28;21024;-62
2023/07/22 09:57:45;;;;;;;5.40;4.87;;;24.90;81.60;;;;;;5035840;28;20465;-62
2023/07/22 10:00:14;;;;;;;6.03;5.20;;;24.60;82.60;;;;;;5030715;28;20475;-62
2023/07/22 10:02:43;;;;;;;6.40;4.97;;;24.60;80.40;;;;;;5035140;28;20695;-62
2023/07/22 10:05:14;;;;;;;5.73;5.23;;;24.50;79.80;;;;;;5036349;28;20478;-62
2023/07/22 10:07:46;;;;;;;5.53;5.03;;;24.50;82.40;;;;;;5030724;28;20545;-62
2023/07/22 10:10:15;;;;;;;6.20;5.60;;;24.50;79.40;;;;;;5036246;28;20463;-62
2023/07/22 10:12:43;;;;;;;10.00;6.10;;;24.40;79.70;;;;;;5040669;28;20478;-62
2023/07/22 10:15:11;;;;;;;5.60;5.20;;;24.60;83.40;;;;;;5036734;28;20482;-63
2023/07/22 10:17:39;;;;;;;6.00;5.13;;;24.80;85.00;;;;;;5027902;28;20462;-62
2023/07/22 10:20:09;;;;;;;7.50;5.17;;;24.70;80.60;;;;;;5029633;28;20875;-62
2023/07/22 10:22:38;;;;;;;7.50;6.40;;;24.80;79.30;;;;;;5033507;28;20489;-62
2023/07/22 10:25:09;;;;;;;5.63;5.17;;;25.10;78.20;;;;;;5028645;28;20466;-63
2023/07/22 10:27:39;;;;;;;5.00;4.43;;;25.50;81.60;;;;;;5032314;28;20504;-62
2023/07/22 10:30:07;;;;;;;5.73;5.03;;;25.60;72.40;;;;;;5033252;28;20982;-62
2023/07/22 10:32:39;;;;;;;7.27;5.27;;;25.50;73.60;;;;;;5030954;28;20487;-62
2023/07/22 10:35:10;;;;;;;6.90;5.60;;;25.40;73.40;;;;;;5015714;28;20502;-62
2023/07/22 10:37:38;;;;;;;7.07;4.40;;;25.30;75.60;;;;;;5019455;28;20490;-63
2023/07/22 10:40:20;;;;;;;9.83;6.60;;;25.20;75.90;;;;;;5020254;28;20455;-62
2023/07/22 10:42:55;;;;;;;8.03;5.30;;;24.90;77.20;;;;;;5017561;28;20455;-63
2023/07/22 10:45:27;;;;;;;8.20;6.17;;;24.80;77.10;;;;;;5022902;28;20462;-62
2023/07/22 10:48:02;;;;;;;9.70;5.80;;;24.60;76.50;;;;;;5018173;28;20528;-62
2023/07/22 10:50:43;;;;;;;10.60;6.87;;;24.60;75.60;;;;;;5034267;28;21343;-62
2023/07/22 10:53:14;;;;;;;6.33;4.03;;;24.60;75.70;;;;;;5014852;28;20455;-62
2023/07/22 10:56:06;;;;;;;6.43;5.13;;;24.40;74.20;;;;;;5021637;28;20491;-62
2023/07/22 10:58:33;;;;;;;7.90;5.30;;;24.40;76.10;;;;;;5014776;28;20455;-62
2023/07/22 11:01:24;;;;;;;20.73;6.20;;;24.40;76.30;;;;;;5014842;28;21141;-62
2023/07/22 11:04:31;;;;;;;5.30;4.90;;;24.50;78.60;;;;;;5017959;28;20480;-63
2023/07/22 11:07:00;;;;;;;5.83;5.20;;;24.40;78.10;;;;;;5022969;28;20473;-63
2023/07/22 11:09:37;;;;;;;6.47;5.77;;;25.00;78.50;;;;;;5016953;28;20479;-63
2023/07/22 11:12:07;;;;;;;7.77;5.33;;;25.00;74.80;;;;;;5018384;28;20993;-63
2023/07/22 11:14:36;;;;;;;5.50;5.00;;;25.00;73.50;;;;;;5015665;28;20700;-62
2023/07/22 11:17:04;;;;;;;6.30;5.03;;;25.30;76.60;;;;;;5024742;28;20996;-62
2023/07/22 11:19:32;;;;;;;7.87;6.50;;;25.10;71.90;;;;;;5028310;28;20609;-63
2023/07/22 11:21:59;;;;;;;5.47;5.00;;;25.00;73.30;;;;;;5012864;28;20875;-63
2023/07/22 11:24:28;;;;;;;12.93;11.83;;;25.00;73.00;;;;;;5017441;28;20482;-63
2023/07/22 11:26:55;;;;;;;6.20;5.40;;;24.90;74.30;;;;;;5021362;28;20483;-63
2023/07/22 11:29:24;;;;;;;8.43;7.63;;;24.70;72.50;;;;;;5017218;28;20451;-63
2023/07/22 11:31:51;;;;;;;11.17;6.33;;;24.60;72.80;;;;;;5014030;28;20479;-63
2023/07/22 11:34:20;;;;;;;8.83;7.60;;;24.70;74.00;;;;;;5025686;28;20480;-62
2023/07/22 11:36:48;;;;;;;6.93;5.87;;;25.10;76.60;;;;;;5023247;28;20507;-63
2023/07/22 11:39:16;;;;;;;9.40;6.30;;;25.50;73.70;;;;;;5024751;28;20537;-63
2023/07/22 11:41:44;;;;;;;8.53;5.33;;;25.60;72.30;;;;;;5026548;28;20775;-63
2023/07/22 11:44:13;;;;;;;6.10;5.60;;;25.80;73.60;;;;;;5027002;28;20490;-63
2023/07/22 11:46:52;;;;;;;6.27;5.63;;;25.90;74.00;;;;;;5023479;28;20529;-64
2023/07/22 11:49:27;;;;;;;15.30;7.40;;;26.00;70.00;;;;;;5043961;28;20552;-63
2023/07/22 11:51:59;;;;;;;5.27;4.87;;;26.10;70.50;;;;;;5050526;28;20539;-63
2023/07/22 11:54:26;;;;;;;8.33;7.20;;;26.10;71.60;;;;;;5057847;28;20993;-63
2023/07/22 11:56:54;;;;;;;7.30;6.60;;;26.40;73.30;;;;;;5062187;28;20637;-63
2023/07/22 11:59:34;;;;;;;9.27;5.77;;;26.50;72.10;;;;;;5062095;27;20870;-63
2023/07/22 12:02:05;;;;;;;6.53;5.80;;;26.40;69.80;;;;;;5046434;28;20484;-63
2023/07/22 12:04:32;;;;;;;7.40;6.70;;;26.40;70.90;;;;;;5054332;28;20823;-63
2023/07/22 12:06:59;;;;;;;5.07;4.67;;;26.30;71.40;;;;;;5064435;28;20880;-63
2023/07/22 12:09:26;;;;;;;10.73;7.60;;;26.20;71.30;;;;;;5059157;28;20855;-63
2023/07/22 12:11:58;;;;;;;9.97;6.10;;;26.00;70.90;;;;;;5060170;28;21014;-63
2023/07/22 12:14:25;;;;;;;7.27;6.77;;;26.00;73.60;;;;;;5047686;28;20494;-62
2023/07/22 12:16:57;;;;;;;8.90;4.90;;;26.00;71.00;;;;;;5067283;28;20444;-63
2023/07/22 12:19:28;;;;;;;7.00;5.97;;;25.90;71.10;;;;;;5038011;28;20470;-63
2023/07/22 12:21:54;;;;;;;7.90;5.67;;;26.00;70.80;;;;;;5043786;28;20447;-64
2023/07/22 12:24:21;;;;;;;8.23;7.50;;;26.10;73.70;;;;;;5055741;28;20474;-63
2023/07/22 12:26:48;;;;;;;6.87;5.57;;;26.10;72.70;;;;;;5055417;28;20482;-63
2023/07/22 12:29:15;;;;;;;5.60;5.20;;;26.00;67.50;;;;;;5051904;28;20817;-63
2023/07/22 12:31:42;;;;;;;6.13;5.53;;;26.10;65.70;;;;;;5048251;28;20455;-63
2023/07/22 12:34:08;;;;;;;7.17;5.93;;;26.20;66.70;;;;;;5051742;28;20460;-63
2023/07/22 12:36:37;;;;;;;11.07;5.03;;;25.90;65.10;;;;;;5055568;28;20485;-64
2023/07/22 12:39:04;;;;;;;6.10;5.50;;;25.90;66.20;;;;;;5051787;28;20478;-63
2023/07/22 12:41:31;;;;;;;6.83;6.23;;;25.80;65.90;;;;;;5047417;28;20536;-63
2023/07/22 12:43:58;;;;;;;6.90;5.80;;;25.80;68.10;;;;;;5056181;28;20668;-63
2023/07/22 12:46:26;;;;;;;10.27;7.43;;;26.00;68.40;;;;;;5046969;28;20474;-63
2023/07/22 12:48:53;;;;;;;6.20;5.70;;;26.10;69.20;;;;;;5050554;28;20468;-64